D/T METAR WX W/SPE G/SPE TEMP DEWP FEEL
31/01/23 13:20 EGPH 311320Z 25012KT 9999 -RA FEW001 SCT008 04/02 Q1014 -RA 13.8mph 4°C 2°C 2.4°C
31/01/23 12:50 EGPH 311250Z 27014KT 9999 4000NW -RA SCT015 06/02 Q1014 -RA 16.1mph 6°C 2°C 4.4°C
31/01/23 12:20 EGPH 311220Z 26017G30KT 9999 FEW017 05/01 Q1014 19.6mph 34.5mph 5°C 1°C 3.1°C
31/01/23 07:20 EGPH 310720Z 26016KT 9999 -RA FEW010 SCT020 06/03 Q1012 -RA 18.4mph 6°C 3°C 4.7°C
31/01/23 06:50 EGPH 310650Z 26012KT 9999 -RA SCT022 07/04 Q1012 -RA 13.8mph 7°C 4°C 6.0°C
30/01/23 21:50 EGPH 302150Z 23013KT 9999 OVC010 07/05 Q1016 15.0mph 7°C 5°C 6.3°C
30/01/23 12:50 EGPH 301250Z 26011KT 9999 FEW030 09/02 Q1021 12.7mph 9°C 2°C 7.4°C
30/01/23 10:50 EGPH 301050Z 25010KT CAVOK 07/03 Q1020 11.5mph 7°C 3°C 5.7°C
30/01/23 10:20 EGPH 301020Z 25009KT CAVOK 06/02 Q1020 10.4mph 6°C 2°C 4.4°C
30/01/23 07:50 EGPH 300750Z 24007KT CAVOK 04/01 Q1018 8.1mph 4°C 1°C 2.1°C
13/01/23 19:20 EGPH 131920Z 21012KT CAVOK 05/03 Q1004 13.8mph 5°C 3°C 3.7°C
09/01/23 06:50 EGPH 090650Z 25010KT CAVOK 04/03 Q0987 11.5mph 4°C 3°C 2.7°C
09/01/23 06:20 EGPH 090620Z 25009KT CAVOK 04/03 Q0986 10.4mph 4°C 3°C 2.7°C
09/01/23 05:20 EGPH 090520Z 25007KT CAVOK 05/03 Q0985 8.1mph 5°C 3°C 3.7°C
09/01/23 04:50 EGPH 090450Z 25007KT 9999 FEW013 SCT032 05/03 Q0985 8.1mph 5°C 3°C 3.7°C
09/01/23 04:20 EGPH 090420Z 25007KT 9999 FEW013 SCT032 05/03 Q0984 8.1mph 5°C 3°C 3.7°C
09/01/23 03:50 EGPH 090350Z 25009KT 9999 -RA FEW010 BKN024 OVC039 05/04 Q0984 -RA 10.4mph 5°C 4°C 4.0°C
09/01/23 03:20 EGPH 090320Z 25010KT 9999 -RA SCT023 BKN036 05/04 Q0983 -RA 11.5mph 5°C 4°C 4.0°C
09/01/23 02:50 EGPH 090250Z 25007KT 9999 -RA SCT014 SCT030 05/04 Q0983 -RA 8.1mph 5°C 4°C 4.0°C
09/01/23 02:20 EGPH 090220Z 23008KT 9999 SCT035 BKN049 04/03 Q0982 9.2mph 4°C 3°C 2.7°C
09/01/23 01:20 EGPH 090120Z 24003KT 210V280 CAVOK 03/02 Q0981 3.5mph 3°C 2°C 1.4°C
09/01/23 00:50 EGPH 090050Z 26003KT 9999 FEW017 03/02 Q0981 3.5mph 3°C 2°C 1.4°C
09/01/23 00:20 EGPH 090020Z 23002KT 9999 FEW014 BKN034 03/02 Q0981 2.3mph 3°C 2°C 1.4°C
08/01/23 23:50 EGPH 082350Z VRB02KT 9999 SCT010 SCT021 03/02 Q0980 2.3mph 3°C 2°C 1.4°C
08/01/23 23:20 EGPH 082320Z VRB01KT 9999 BKN012 04/03 Q0980 1.2mph 4°C 3°C 2.7°C
08/01/23 22:50 EGPH 082250Z 28003KT 250V360 9999 BKN012 05/03 Q0980 3.5mph 5°C 3°C 3.7°C
08/01/23 22:20 EGPH 082220Z 26007KT 230V300 9999 BKN016 05/03 Q0980 8.1mph 5°C 3°C 3.7°C
08/01/23 20:20 EGPH 082020Z 21007KT 9999 FEW023 SCT029 05/02 Q0979 8.1mph 5°C 2°C 3.4°C
08/01/23 19:50 EGPH 081950Z 22013KT 9999 FEW017 05/02 Q0979 15.0mph 5°C 2°C 3.4°C
08/01/23 19:20 EGPH 081920Z 22007KT 9999 SCT028 05/02 Q0979 8.1mph 5°C 2°C 3.4°C
08/01/23 18:50 EGPH 081850Z 22008KT 9999 FEW030 04/02 Q0978 9.2mph 4°C 2°C 2.4°C
08/01/23 18:20 EGPH 081820Z 22007KT 9999 FEW032 04/01 Q0978 8.1mph 4°C 1°C 2.1°C
08/01/23 17:20 EGPH 081720Z 21010KT CAVOK 05/01 Q0978 11.5mph 5°C 1°C 3.1°C
08/01/23 16:50 EGPH 081650Z 21012KT CAVOK 05/01 Q0978 13.8mph 5°C 1°C 3.1°C
08/01/23 16:20 EGPH 081620Z 20012KT CAVOK 05/02 Q0979 13.8mph 5°C 2°C 3.4°C
08/01/23 15:20 EGPH 081520Z 20010KT 9999 FEW020 05/02 Q0979 11.5mph 5°C 2°C 3.4°C
08/01/23 14:20 EGPH 081420Z 21015KT 9999 FEW020 SCT042 06/02 Q0979 17.3mph 6°C 2°C 4.4°C
08/01/23 13:50 EGPH 081350Z 21013KT 9999 FEW018 SCT033 05/03 Q0979 15.0mph 5°C 3°C 3.7°C
08/01/23 13:20 EGPH 081320Z 21013KT 9999 FEW027 SCT041 05/03 Q0979 15.0mph 5°C 3°C 3.7°C
08/01/23 12:50 EGPH 081250Z 23011KT 9999 -RA BKN023 06/04 Q0980 -RA 12.7mph 6°C 4°C 5.0°C
08/01/23 12:20 EGPH 081220Z 21017KT 9999 -RA BKN021 06/03 Q0980 -RA 19.6mph 6°C 3°C 4.7°C
08/01/23 11:50 EGPH 081150Z 22018KT 9999 -RA FEW009 BKN017 05/03 Q0981 RERA -RA 20.7mph 5°C 3°C 3.7°C
08/01/23 10:50 EGPH 081050Z 25010KT 220V280 9999 FEW023 SCT043 06/03 Q0980 11.5mph 6°C 3°C 4.7°C
08/01/23 10:20 EGPH 081020Z 24010KT 9999 -RA SCT025 06/04 Q0980 -RA 11.5mph 6°C 4°C 5.0°C
08/01/23 09:50 EGPH 080950Z 21016KT 9999 6000W -RA SCT022 BKN038 07/03 Q0981 -RA 18.4mph 7°C 3°C 5.7°C
08/01/23 09:20 EGPH 080920Z 22012KT 9999 SCT033 07/02 Q0981 13.8mph 7°C 2°C 5.4°C
08/01/23 08:50 EGPH 080850Z 21014KT 9999 FEW035 SCT043 07/02 Q0981 16.1mph 7°C 2°C 5.4°C
08/01/23 08:20 EGPH 080820Z 21014KT 9999 SCT042 07/02 Q0981 16.1mph 7°C 2°C 5.4°C
08/01/23 07:50 EGPH 080750Z 21017KT 9999 SCT041 07/02 Q0981 19.6mph 7°C 2°C 5.4°C
08/01/23 07:20 EGPH 080720Z 21016KT 9999 SCT038 07/02 Q0981 18.4mph 7°C 2°C 5.4°C
08/01/23 06:50 EGPH 080650Z 21013KT 9999 FEW047 07/02 Q0981 15.0mph 7°C 2°C 5.4°C
08/01/23 06:20 EGPH 080620Z 20014KT CAVOK 07/02 Q0981 16.1mph 7°C 2°C 5.4°C
08/01/23 05:50 EGPH 080550Z 20016KT 9999 SCT039 07/02 Q0981 18.4mph 7°C 2°C 5.4°C
08/01/23 05:20 EGPH 080520Z 22014KT 9999 SCT036 07/03 Q0981 16.1mph 7°C 3°C 5.7°C
08/01/23 04:50 EGPH 080450Z 21015KT 9999 SCT038 07/03 Q0981 17.3mph 7°C 3°C 5.7°C
08/01/23 04:20 EGPH 080420Z 21016KT 9999 SCT038 07/03 Q0981 18.4mph 7°C 3°C 5.7°C
08/01/23 03:50 EGPH 080350Z 21016KT 9999 FEW036 07/03 Q0981 18.4mph 7°C 3°C 5.7°C
08/01/23 03:20 EGPH 080320Z 22016KT CAVOK 07/03 Q0981 18.4mph 7°C 3°C 5.7°C
08/01/23 02:50 EGPH 080250Z 22019KT 9999 FEW037 08/03 Q0981 21.9mph 8°C 3°C 6.7°C
08/01/23 02:20 EGPH 080220Z 22022KT 9999 FEW041 08/03 Q0980 25.3mph 8°C 3°C 6.7°C
08/01/23 01:50 EGPH 080150Z 22024G34KT 9999 SCT037 08/04 Q0979 27.6mph 39.1mph 8°C 4°C 7.0°C
08/01/23 01:20 EGPH 080120Z 22024KT 9999 BKN038 08/04 Q0979 27.6mph 8°C 4°C 7.0°C
08/01/23 00:20 EGPH 080020Z 21018KT CAVOK 08/04 Q0979 20.7mph 8°C 4°C 7.0°C
07/01/23 23:50 EGPH 072350Z 21018G28KT 9999 -RA FEW020 BKN036 08/04 Q0980 -RA 20.7mph 32.2mph 8°C 4°C 7.0°C
07/01/23 23:20 EGPH 072320Z 21014KT CAVOK 07/04 Q0979 16.1mph 7°C 4°C 6.0°C
07/01/23 22:50 EGPH 072250Z 21015KT CAVOK 07/04 Q0979 17.3mph 7°C 4°C 6.0°C
07/01/23 22:20 EGPH 072220Z 21017KT CAVOK 07/04 Q0980 19.6mph 7°C 4°C 6.0°C
07/01/23 21:50 EGPH 072150Z 21015KT 9999 FEW029 07/04 Q0980 17.3mph 7°C 4°C 6.0°C
07/01/23 21:20 EGPH 072120Z 21012KT 9999 -RA FEW011 BKN025 07/04 Q0980 -RA 13.8mph 7°C 4°C 6.0°C
07/01/23 20:50 EGPH 072050Z 21016G31KT 9999 -RA FEW009 SCT023 08/04 Q0980 -RA 18.4mph 35.7mph 8°C 4°C 7.0°C
07/01/23 20:20 EGPH 072020Z 20013G23KT 9999 SCT027 08/04 Q0980 15.0mph 26.5mph 8°C 4°C 7.0°C
07/01/23 19:50 EGPH 071950Z 20013KT 170V230 9999 FEW041 08/03 Q0980 15.0mph 8°C 3°C 6.7°C
07/01/23 19:20 EGPH 071920Z 20016KT 9999 FEW033 08/03 Q0981 18.4mph 8°C 3°C 6.7°C
07/01/23 18:50 EGPH 071850Z 20011G21KT 9999 FEW037 08/03 Q0981 12.7mph 24.2mph 8°C 3°C 6.7°C
07/01/23 17:50 EGPH 071750Z 19011KT CAVOK 07/03 Q0982 12.7mph 7°C 3°C 5.7°C
07/01/23 17:20 EGPH 071720Z 21013KT 9999 FEW030 08/03 Q0982 15.0mph 8°C 3°C 6.7°C
07/01/23 16:50 EGPH 071650Z 19013KT 9999 FEW028 08/04 Q0982 15.0mph 8°C 4°C 7.0°C
07/01/23 16:20 EGPH 071620Z 21010KT 9999 FEW020 08/05 Q0982 11.5mph 8°C 5°C 7.3°C
07/01/23 15:50 EGPH 071550Z 18006KT 130V210 9999 -SHRA FEW016 08/04 Q0983 -SHRA 6.9mph 8°C 4°C 7.0°C
07/01/23 14:50 EGPH 071450Z 21010KT 180V250 9999 FEW026 08/03 Q0983 11.5mph 8°C 3°C 6.7°C
07/01/23 13:50 EGPH 071350Z 23008KT 190V270 9999 FEW023 09/05 Q0984 9.2mph 9°C 5°C 8.3°C
07/01/23 13:20 EGPH 071320Z 21013KT 9999 FEW018 09/05 Q0985 15.0mph 9°C 5°C 8.3°C
07/01/23 12:20 EGPH 071220Z 22009KT 190V250 9999 FEW009 09/05 Q0986 10.4mph 9°C 5°C 8.3°C
07/01/23 11:50 EGPH 071150Z VRB01KT 9999 FEW014 10/07 Q0986 1.2mph 10°C 7°C 10.0°C
07/01/23 10:50 EGPH 071050Z 13006KT 090V160 9999 -RA FEW016 BKN035 07/07 Q0987 -RA 6.9mph 7°C 7°C 7.0°C
07/01/23 10:20 EGPH 071020Z 13005KT 100V170 9999 7000N -RA BKN028 07/07 Q0987 -RA 5.8mph 7°C 7°C 7.0°C
07/01/23 09:20 EGPH 070920Z VRB02KT 6000 -RA OVC026 08/07 Q0987 -RA 2.3mph 8°C 7°C 8.0°C
07/01/23 08:50 EGPH 070850Z 11004KT 9999 -RA FEW012 BKN030 08/07 Q0988 -RA 4.6mph 8°C 7°C 8.0°C
07/01/23 08:20 EGPH 070820Z 19003KT 140V230 9999 -RA FEW012 BKN031 08/07 Q0988 -RA 3.5mph 8°C 7°C 8.0°C
07/01/23 07:50 EGPH 070750Z 22003KT 9999 -RA FEW012 BKN029 BKN040 08/07 Q0989 -RA 3.5mph 8°C 7°C 8.0°C
07/01/23 07:20 EGPH 070720Z 23002KT 6000 -DZ FEW007 BKN016 08/07 Q0989 -DZ 2.3mph 8°C 7°C 8.0°C
07/01/23 06:50 EGPH 070650Z 23004KT 9999 -RA FEW009 BKN025 08/07 Q0989 -RA 4.6mph 8°C 7°C 8.0°C
07/01/23 06:20 EGPH 070620Z 26006KT 9000 -RA FEW004 BKN018 09/07 Q0989 RERA -RA 6.9mph 9°C 7°C 9.0°C
07/01/23 05:20 EGPH 070520Z 21011KT 9999 BKN040 10/08 Q0989 12.7mph 10°C 8°C 10.4°C
07/01/23 04:20 EGPH 070420Z 20007KT 9999 -RA NSC 10/08 Q0990 -RA 8.1mph 10°C 8°C 10.4°C
07/01/23 03:50 EGPH 070350Z 20012KT 9999 -RA OVC041 10/08 Q0990 -RA 13.8mph 10°C 8°C 10.4°C